createdAt,value
2019-05-30T00:03:18.998Z,17.05
2019-05-30T00:07:56.042Z,14.70
2019-05-30T00:12:31.926Z,12.30
2019-05-30T00:17:07.713Z,12.55
2019-05-30T00:21:43.541Z,13.35
2019-05-30T00:26:19.336Z,12.80
2019-05-30T00:30:56.289Z,11.57
2019-05-30T00:35:32.145Z,12.80
2019-05-30T00:40:08.597Z,14.47
2019-05-30T00:44:44.385Z,13.43
2019-05-30T00:49:20.152Z,15.08
2019-05-30T00:53:56.483Z,11.35
2019-05-30T00:58:32.260Z,13.70
2019-05-30T01:03:09.004Z,11.60
2019-05-30T01:07:44.986Z,14.18
2019-05-30T01:12:20.760Z,14.98
2019-05-30T01:16:57.108Z,13.75
2019-05-30T01:21:33.181Z,15.68
2019-05-30T01:26:08.938Z,15.75
2019-05-30T01:30:59.102Z,14.58
2019-05-30T01:35:22.222Z,14.45
2019-05-30T01:39:58.009Z,16.97
2019-05-30T01:44:33.801Z,14.58
2019-05-30T01:49:09.592Z,15.10
2019-05-30T01:53:45.349Z,17.35
2019-05-30T01:58:21.133Z,18.75
2019-05-30T02:02:56.890Z,20.80
2019-05-30T02:07:32.687Z,16.77
2019-05-30T02:12:09.507Z,14.45
2019-05-30T02:16:45.503Z,13.62
2019-05-30T02:21:21.272Z,19.37
2019-05-30T02:25:57.059Z,14.53
2019-05-30T02:30:32.819Z,14.73
2019-05-30T02:35:10.940Z,14.40
2019-05-30T02:39:46.455Z,16.23
2019-05-30T02:44:22.232Z,14.68
2019-05-30T02:48:59.690Z,13.32
2019-05-30T02:53:35.487Z,13.28
2019-05-30T02:58:12.967Z,12.85
2019-05-30T03:02:48.726Z,13.32
2019-05-30T03:07:24.491Z,14.35
2019-05-30T03:12:01.895Z,11.83
2019-05-30T03:16:37.786Z,10.63
2019-05-30T03:21:15.669Z,14.55
2019-05-30T03:25:51.022Z,12.68
2019-05-30T03:30:29.487Z,14.38
2019-05-30T03:35:13.084Z,9.03
2019-05-30T03:39:42.737Z,10.23
2019-05-30T03:44:18.497Z,12.03
2019-05-30T03:48:55.806Z,8.80
2019-05-30T03:53:31.600Z,10.93
2019-05-30T03:58:16.463Z,9.90
2019-05-30T04:02:59.003Z,10.65
2019-05-30T04:07:37.211Z,14.13
2019-05-30T04:12:29.545Z,11.28
2019-05-30T04:17:05.334Z,9.73
2019-05-30T04:21:41.073Z,8.65
2019-05-30T04:26:18.142Z,9.08
2019-05-30T04:30:54.061Z,8.98
2019-05-30T04:35:29.831Z,13.62
2019-05-30T04:40:05.975Z,9.03
2019-05-30T04:44:41.743Z,9.70
2019-05-30T04:49:19.676Z,9.05
2019-05-30T04:53:54.945Z,11.68
2019-05-30T04:58:30.715Z,11.83
2019-05-30T05:03:06.586Z,9.13
2019-05-30T05:07:42.331Z,12.95
2019-05-30T05:12:18.258Z,10.75
2019-05-30T05:16:54.028Z,11.78
2019-05-30T05:21:29.802Z,11.35
2019-05-30T05:26:05.540Z,10.75
2019-05-30T05:30:41.343Z,12.23
2019-05-30T05:35:17.261Z,13.60
2019-05-30T05:39:53.056Z,12.68
2019-05-30T05:44:28.821Z,11.97
2019-05-30T05:49:04.665Z,11.63
2019-05-30T05:53:40.455Z,12.03
2019-05-30T05:58:16.834Z,22.80
2019-05-30T06:02:52.705Z,12.33
2019-05-30T06:07:28.638Z,14.53
2019-05-30T06:12:04.721Z,13.55
2019-05-30T06:16:40.556Z,14.78
2019-05-30T06:21:17.216Z,11.73
2019-05-30T06:25:53.165Z,16.77
2019-05-30T06:30:28.926Z,13.22
2019-05-30T06:35:05.209Z,9.95
2019-05-30T06:39:40.965Z,11.73
2019-05-30T06:44:16.737Z,11.70
2019-05-30T06:48:52.489Z,11.88
2019-05-30T06:53:29.359Z,12.63
2019-05-30T06:58:05.388Z,12.73
2019-05-30T07:02:41.192Z,10.15
2019-05-30T07:07:17.324Z,12.15
2019-05-30T07:11:53.290Z,10.60
2019-05-30T07:16:29.545Z,12.45
2019-05-30T07:21:05.513Z,12.80
2019-05-30T07:25:41.356Z,14.15
2019-05-30T07:30:17.632Z,12.00
2019-05-30T07:35:06.117Z,9.68
2019-05-30T07:39:33.313Z,12.00
2019-05-30T07:44:08.343Z,13.10
2019-05-30T07:48:44.117Z,13.98
2019-05-30T07:53:19.876Z,13.72
2019-05-30T07:57:55.651Z,15.03
2019-05-30T08:02:31.610Z,11.90
2019-05-30T08:07:07.473Z,15.85
2019-05-30T08:11:43.256Z,11.18
2019-05-30T08:16:19.026Z,10.98
2019-05-30T08:20:54.814Z,14.45
2019-05-30T08:25:30.600Z,10.88
2019-05-30T08:30:07.087Z,12.93
2019-05-30T08:34:42.868Z,11.63
2019-05-30T08:39:18.645Z,9.93
2019-05-30T08:43:54.467Z,9.38
2019-05-30T08:48:30.210Z,12.05
2019-05-30T08:53:06.031Z,10.38
2019-05-30T08:57:41.848Z,11.70
2019-05-30T09:02:17.637Z,10.03
2019-05-30T09:06:53.391Z,10.75
2019-05-30T09:11:29.173Z,8.38
2019-05-30T09:16:05.035Z,9.15
2019-05-30T09:20:41.916Z,9.23
2019-05-30T09:25:18.752Z,11.18
2019-05-30T09:29:54.530Z,19.92
2019-05-30T09:34:30.281Z,8.60
2019-05-30T09:39:08.106Z,7.70
2019-05-30T09:43:44.726Z,7.37
2019-05-30T09:48:20.973Z,6.28
2019-05-30T09:52:56.732Z,13.13
2019-05-30T09:57:32.589Z,7.30
2019-05-30T10:02:08.446Z,7.67
2019-05-30T10:06:44.676Z,5.80
2019-05-30T10:11:20.456Z,5.35
2019-05-30T10:15:56.724Z,7.35
2019-05-30T10:20:32.620Z,6.22
2019-05-30T10:25:08.591Z,5.97
2019-05-30T10:29:45.869Z,7.45
2019-05-30T10:34:21.975Z,7.37
2019-05-30T10:38:57.784Z,7.10
2019-05-30T10:43:33.560Z,6.83
2019-05-30T10:48:09.319Z,4.15
2019-05-30T10:52:45.379Z,3.70
2019-05-30T10:57:21.175Z,3.45
2019-05-30T11:01:56.944Z,3.62
2019-05-30T11:07:04.493Z,9.33
2019-05-30T11:11:25.588Z,3.00
2019-05-30T11:16:01.339Z,4.30
2019-05-30T11:20:37.191Z,4.47
2019-05-30T11:25:12.956Z,6.15
2019-05-30T11:29:48.769Z,2.47
2019-05-30T11:34:24.585Z,3.10
2019-05-30T11:39:00.405Z,3.98
2019-05-30T11:43:36.153Z,4.75
2019-05-30T11:48:11.933Z,2.95
2019-05-30T11:52:47.676Z,3.62
2019-05-30T11:57:23.467Z,4.28
2019-05-30T12:02:00.461Z,3.27
2019-05-30T12:06:36.370Z,3.52
2019-05-30T12:11:12.116Z,3.08
2019-05-30T12:15:47.883Z,4.05
2019-05-30T12:20:23.635Z,2.55
2019-05-30T12:25:00.048Z,3.77
2019-05-30T12:29:36.341Z,2.40
2019-05-30T12:34:12.104Z,5.53
2019-05-30T12:38:47.874Z,3.40
2019-05-30T12:43:23.644Z,3.67
2019-05-30T12:47:59.395Z,3.60
2019-05-30T12:52:35.172Z,3.83
2019-05-30T12:57:10.923Z,2.90
2019-05-30T13:01:46.696Z,3.92
2019-05-30T13:06:22.537Z,3.87
2019-05-30T13:10:59.408Z,5.47
2019-05-30T13:15:35.249Z,3.75
2019-05-30T13:20:12.738Z,4.15
2019-05-30T13:24:48.548Z,3.52
2019-05-30T13:29:24.327Z,2.72
2019-05-30T13:34:01.050Z,3.08
2019-05-30T13:38:36.981Z,2.37
2019-05-30T13:43:12.727Z,2.50
2019-05-30T13:47:48.506Z,4.62
2019-05-30T13:52:24.245Z,3.05
2019-05-30T13:57:01.555Z,2.67
2019-05-30T14:01:37.441Z,2.67
2019-05-30T14:06:13.212Z,3.25
2019-05-30T14:10:49.017Z,3.15
2019-05-30T14:15:24.906Z,3.55
2019-05-30T14:20:00.824Z,1.27
2019-05-30T14:24:36.747Z,2.22
2019-05-30T14:29:12.502Z,3.85
2019-05-30T14:33:48.281Z,1.35
2019-05-30T14:38:24.054Z,2.55
2019-05-30T14:42:59.825Z,2.72
2019-05-30T14:47:35.742Z,1.62
2019-05-30T14:52:12.101Z,3.60
2019-05-30T14:56:48.978Z,2.67
2019-05-30T15:01:24.743Z,2.92
2019-05-30T15:06:00.498Z,3.42
2019-05-30T15:10:36.268Z,2.58
2019-05-30T15:15:14.677Z,2.35
2019-05-30T15:19:49.827Z,2.55
2019-05-30T15:24:25.628Z,3.37
2019-05-30T15:29:01.412Z,2.00
2019-05-30T15:33:37.169Z,3.72
2019-05-30T15:38:12.973Z,2.47
2019-05-30T15:42:52.922Z,2.30
2019-05-30T15:47:26.361Z,3.00
2019-05-30T15:52:02.100Z,3.67
2019-05-30T15:56:37.873Z,3.05
2019-05-30T16:01:13.982Z,1.10
2019-05-30T16:05:49.777Z,2.42
2019-05-30T16:10:25.532Z,2.10
2019-05-30T16:15:01.317Z,3.60
2019-05-30T16:19:37.137Z,2.42
2019-05-30T16:24:12.902Z,2.33
2019-05-30T16:28:48.647Z,3.00
2019-05-30T16:33:24.437Z,6.17
2019-05-30T16:38:00.205Z,3.45
2019-05-30T16:42:35.985Z,4.55
2019-05-30T16:47:11.751Z,1.62
2019-05-30T16:51:47.516Z,4.17
2019-05-30T16:56:23.588Z,3.05
2019-05-30T17:00:59.421Z,2.35
2019-05-30T17:05:35.166Z,2.90
2019-05-30T17:10:22.197Z,2.20
2019-05-30T17:14:48.556Z,3.85
2019-05-30T17:19:24.572Z,2.17
2019-05-30T17:24:00.378Z,2.90
2019-05-30T17:28:36.225Z,2.45
2019-05-30T17:33:11.973Z,2.70
2019-05-30T17:37:47.749Z,2.75
2019-05-30T17:42:23.517Z,4.87
2019-05-30T17:46:59.409Z,3.02
2019-05-30T17:51:35.259Z,2.52
2019-05-30T17:56:11.050Z,3.80
2019-05-30T18:00:46.796Z,2.95
2019-05-30T18:05:22.662Z,3.77
2019-05-30T18:09:58.413Z,3.20
2019-05-30T18:14:34.186Z,2.22
2019-05-30T18:19:10.016Z,3.20
2019-05-30T18:23:45.796Z,3.83
2019-05-30T18:28:23.608Z,2.50
2019-05-30T18:32:59.445Z,3.05
2019-05-30T18:37:35.202Z,4.42
2019-05-30T18:42:10.962Z,3.10
2019-05-30T18:46:46.711Z,5.78
2019-05-30T18:51:22.491Z,3.30
2019-05-30T18:55:58.264Z,4.70
2019-05-30T19:00:34.045Z,3.85
2019-05-30T19:05:09.807Z,4.05
2019-05-30T19:09:45.637Z,4.15
2019-05-30T19:14:21.455Z,3.62
2019-05-30T19:18:57.224Z,4.80
2019-05-30T19:23:34.180Z,2.47
2019-05-30T19:28:10.137Z,9.33
2019-05-30T19:32:45.889Z,2.92
2019-05-30T19:37:21.666Z,3.33
2019-05-30T19:41:57.779Z,3.77
2019-05-30T19:46:34.241Z,3.37
2019-05-30T19:51:10.113Z,7.40
2019-05-30T19:55:45.915Z,3.77
2019-05-30T20:00:22.388Z,4.05
2019-05-30T20:04:58.170Z,4.85
2019-05-30T20:09:34.550Z,6.78
2019-05-30T20:14:18.549Z,6.87
2019-05-30T20:18:56.238Z,3.45
2019-05-30T20:23:48.420Z,6.15
2019-05-30T20:28:14.141Z,8.20
2019-05-30T20:32:51.311Z,3.00
2019-05-30T20:37:28.292Z,3.40
2019-05-30T20:42:18.718Z,3.98
2019-05-30T20:46:44.339Z,4.05
2019-05-30T20:51:21.797Z,3.50
2019-05-30T20:55:59.352Z,5.22
2019-05-30T21:00:40.100Z,5.80
2019-05-30T21:05:17.899Z,3.42
2019-05-30T21:09:55.624Z,4.03
2019-05-30T21:14:35.455Z,2.47
2019-05-30T21:19:13.589Z,3.92
2019-05-30T21:23:49.412Z,5.92
2019-05-30T21:28:25.197Z,3.85
2019-05-30T21:33:01.639Z,4.47
2019-05-30T21:37:39.675Z,2.87
2019-05-30T21:42:16.925Z,5.03
2019-05-30T21:46:54.531Z,3.02
2019-05-30T21:51:31.619Z,3.95
2019-05-30T21:56:08.410Z,8.18
2019-05-30T22:01:29.260Z,3.37
2019-05-30T22:06:06.918Z,3.15
2019-05-30T22:10:45.402Z,4.75
2019-05-30T22:15:22.992Z,2.15
2019-05-30T22:20:00.591Z,5.20
2019-05-30T22:24:38.937Z,1.75
2019-05-30T22:29:16.288Z,2.20
2019-05-30T22:33:53.572Z,5.03
2019-05-30T22:38:30.714Z,3.10
2019-05-30T22:43:06.505Z,6.37
2019-05-30T22:47:42.356Z,2.90
2019-05-30T22:52:18.373Z,2.77
2019-05-30T22:56:54.146Z,3.08
2019-05-30T23:01:29.914Z,3.15
2019-05-30T23:06:05.798Z,3.92
2019-05-30T23:10:41.841Z,3.25
2019-05-30T23:15:18.138Z,3.33
2019-05-30T23:19:54.850Z,2.92
2019-05-30T23:24:30.854Z,3.22
2019-05-30T23:29:06.670Z,3.20
2019-05-30T23:33:42.438Z,3.02
2019-05-30T23:38:18.198Z,3.42
2019-05-30T23:42:55.054Z,3.00
2019-05-30T23:47:31.231Z,5.10
2019-05-30T23:52:07.289Z,4.80
2019-05-30T23:56:43.045Z,4.95
